sensor_id;sensor_type;location;lat;lon;timestamp;pressure;altitude;pressure_sealevel;temperature;humidity
46846;BME280;33947;46.804;134.252;2023-02-27T00:00:41;101482.78;;;-4.05;44.76
46846;BME280;33947;46.804;134.252;2023-02-27T00:03:44;101463.78;;;-3.86;45.31
46846;BME280;33947;46.804;134.252;2023-02-27T00:06:49;101452.31;;;-4.10;46.16
46846;BME280;33947;46.804;134.252;2023-02-27T00:09:53;101486.34;;;-4.03;45.88
46846;BME280;33947;46.804;134.252;2023-02-27T00:12:58;101479.31;;;-3.68;45.96
46846;BME280;33947;46.804;134.252;2023-02-27T00:16:02;101442.09;;;-3.49;45.54
46846;BME280;33947;46.804;134.252;2023-02-27T00:19:06;101430.00;;;-3.29;45.09
46846;BME280;33947;46.804;134.252;2023-02-27T00:22:11;101422.66;;;-2.98;44.11
46846;BME280;33947;46.804;134.252;2023-02-27T00:25:15;101478.63;;;-2.23;44.27
46846;BME280;33947;46.804;134.252;2023-02-27T00:28:20;101450.16;;;-1.97;44.03
46846;BME280;33947;46.804;134.252;2023-02-27T00:31:24;101461.38;;;-1.76;43.76
46846;BME280;33947;46.804;134.252;2023-02-27T00:34:29;101440.50;;;-1.30;43.16
46846;BME280;33947;46.804;134.252;2023-02-27T00:37:34;101454.31;;;-0.82;42.00
46846;BME280;33947;46.804;134.252;2023-02-27T00:40:39;101436.94;;;-0.82;41.70
46846;BME280;33947;46.804;134.252;2023-02-27T00:43:44;101441.31;;;-0.55;40.56
46846;BME280;33947;46.804;134.252;2023-02-27T00:46:48;101450.25;;;-0.21;40.81
46846;BME280;33947;46.804;134.252;2023-02-27T00:49:53;101377.69;;;-0.31;40.76
46846;BME280;33947;46.804;134.252;2023-02-27T00:52:57;101438.44;;;0.50;40.54
46846;BME280;33947;46.804;134.252;2023-02-27T00:56:01;101427.91;;;0.47;38.89
46846;BME280;33947;46.804;134.252;2023-02-27T00:59:05;101432.75;;;0.64;38.73
46846;BME280;33947;46.804;134.252;2023-02-27T01:02:10;101403.06;;;0.62;37.52
46846;BME280;33947;46.804;134.252;2023-02-27T01:05:14;101431.75;;;1.24;39.42
46846;BME280;33947;46.804;134.252;2023-02-27T01:08:19;101416.75;;;1.54;37.58
46846;BME280;33947;46.804;134.252;2023-02-27T01:11:24;101409.34;;;1.36;37.78
46846;BME280;33947;46.804;134.252;2023-02-27T01:14:28;101414.97;;;1.53;38.49
46846;BME280;33947;46.804;134.252;2023-02-27T01:17:32;101398.91;;;1.37;37.04
46846;BME280;33947;46.804;134.252;2023-02-27T01:20:38;101422.81;;;1.88;37.42
46846;BME280;33947;46.804;134.252;2023-02-27T01:23:43;101403.25;;;1.37;37.99
46846;BME280;33947;46.804;134.252;2023-02-27T01:26:47;101392.34;;;1.20;37.09
46846;BME280;33947;46.804;134.252;2023-02-27T01:29:54;101385.81;;;1.74;37.04
46846;BME280;33947;46.804;134.252;2023-02-27T01:32:58;101381.38;;;1.35;38.06
46846;BME280;33947;46.804;134.252;2023-02-27T01:36:03;101384.03;;;1.73;36.93
46846;BME280;33947;46.804;134.252;2023-02-27T01:39:08;101384.47;;;1.55;36.56
46846;BME280;33947;46.804;134.252;2023-02-27T01:42:24;101378.75;;;1.33;37.91
46846;BME280;33947;46.804;134.252;2023-02-27T01:45:38;101363.84;;;0.95;37.90
46846;BME280;33947;46.804;134.252;2023-02-27T01:48:43;101377.53;;;0.53;38.56
46846;BME280;33947;46.804;134.252;2023-02-27T01:51:54;101366.72;;;0.72;39.15
46846;BME280;33947;46.804;134.252;2023-02-27T01:55:05;101367.16;;;1.23;38.55
46846;BME280;33947;46.804;134.252;2023-02-27T01:58:15;101347.97;;;0.89;38.85
46846;BME280;33947;46.804;134.252;2023-02-27T02:01:21;101337.94;;;1.06;38.37
46846;BME280;33947;46.804;134.252;2023-02-27T02:04:32;101317.69;;;1.34;37.47
46846;BME280;33947;46.804;134.252;2023-02-27T02:07:39;101344.16;;;1.47;38.66
46846;BME280;33947;46.804;134.252;2023-02-27T02:10:46;101343.94;;;1.02;39.48
46846;BME280;33947;46.804;134.252;2023-02-27T02:13:55;101334.19;;;1.32;38.92
46846;BME280;33947;46.804;134.252;2023-02-27T02:40:55;101296.56;;;0.56;41.19
46846;BME280;33947;46.804;134.252;2023-02-27T02:44:23;101299.06;;;0.86;40.35
46846;BME280;33947;46.804;134.252;2023-02-27T02:57:57;101277.00;;;1.10;41.45
46846;BME280;33947;46.804;134.252;2023-02-27T03:01:12;101245.88;;;0.86;41.98
46846;BME280;33947;46.804;134.252;2023-02-27T03:04:27;101252.19;;;1.33;41.16
46846;BME280;33947;46.804;134.252;2023-02-27T03:07:49;101236.63;;;1.39;40.82
46846;BME280;33947;46.804;134.252;2023-02-27T03:11:01;101248.34;;;1.17;41.68
46846;BME280;33947;46.804;134.252;2023-02-27T03:14:40;101255.00;;;1.40;41.78
46846;BME280;33947;46.804;134.252;2023-02-27T03:21:15;101215.69;;;1.39;41.34
46846;BME280;33947;46.804;134.252;2023-02-27T03:24:38;101174.69;;;1.39;40.99
46846;BME280;33947;46.804;134.252;2023-02-27T03:27:56;101179.22;;;1.48;41.18
46846;BME280;33947;46.804;134.252;2023-02-27T03:31:16;101180.63;;;1.73;40.85
46846;BME280;33947;46.804;134.252;2023-02-27T03:34:33;101203.19;;;2.13;39.23
46846;BME280;33947;46.804;134.252;2023-02-27T03:38:05;101160.63;;;1.80;40.40
46846;BME280;33947;46.804;134.252;2023-02-27T03:41:27;101181.41;;;2.17;40.18
46846;BME280;33947;46.804;134.252;2023-02-27T03:48:15;101164.69;;;2.09;40.63
46846;BME280;33947;46.804;134.252;2023-02-27T03:51:21;101150.06;;;2.23;39.58
46846;BME280;33947;46.804;134.252;2023-02-27T03:54:30;101168.81;;;2.46;40.29
46846;BME280;33947;46.804;134.252;2023-02-27T03:57:36;101137.06;;;2.29;40.15
46846;BME280;33947;46.804;134.252;2023-02-27T04:00:41;101158.69;;;2.68;41.01
46846;BME280;33947;46.804;134.252;2023-02-27T04:03:58;101147.44;;;2.80;39.46
46846;BME280;33947;46.804;134.252;2023-02-27T04:18:14;101131.72;;;3.45;38.65
46846;BME280;33947;46.804;134.252;2023-02-27T04:21:29;101129.91;;;3.42;38.75
46846;BME280;33947;46.804;134.252;2023-02-27T04:27:58;101090.34;;;3.28;37.95
46846;BME280;33947;46.804;134.252;2023-02-27T04:34:52;101076.44;;;3.34;39.81
46846;BME280;33947;46.804;134.252;2023-02-27T04:38:13;101105.63;;;3.62;39.04
46846;BME280;33947;46.804;134.252;2023-02-27T04:41:28;101099.75;;;3.88;37.65
46846;BME280;33947;46.804;134.252;2023-02-27T04:44:35;101083.06;;;3.83;38.38
46846;BME280;33947;46.804;134.252;2023-02-27T04:47:48;101072.41;;;3.69;39.04
46846;BME280;33947;46.804;134.252;2023-02-27T04:51:17;101099.69;;;3.82;36.67
46846;BME280;33947;46.804;134.252;2023-02-27T04:54:36;101074.28;;;3.79;37.75
46846;BME280;33947;46.804;134.252;2023-02-27T04:57:50;101086.72;;;4.02;36.69
46846;BME280;33947;46.804;134.252;2023-02-27T05:01:01;101094.66;;;4.03;38.04
46846;BME280;33947;46.804;134.252;2023-02-27T05:04:09;101100.78;;;4.07;37.56
46846;BME280;33947;46.804;134.252;2023-02-27T05:07:18;101057.00;;;4.08;36.88
46846;BME280;33947;46.804;134.252;2023-02-27T05:10:27;101069.41;;;4.26;37.15
46846;BME280;33947;46.804;134.252;2023-02-27T05:13:37;101081.72;;;4.31;37.02
46846;BME280;33947;46.804;134.252;2023-02-27T05:16:49;101045.59;;;4.05;37.34
46846;BME280;33947;46.804;134.252;2023-02-27T05:19:55;101076.53;;;4.41;37.37
46846;BME280;33947;46.804;134.252;2023-02-27T05:23:11;101089.72;;;4.47;37.60
46846;BME280;33947;46.804;134.252;2023-02-27T05:29:46;101071.38;;;4.55;37.26
46846;BME280;33947;46.804;134.252;2023-02-27T05:33:19;101073.91;;;4.45;37.08
46846;BME280;33947;46.804;134.252;2023-02-27T05:37:17;101081.97;;;4.69;36.50
46846;BME280;33947;46.804;134.252;2023-02-27T05:40:29;101079.31;;;4.69;36.78
46846;BME280;33947;46.804;134.252;2023-02-27T05:43:49;101073.19;;;4.65;36.71
46846;BME280;33947;46.804;134.252;2023-02-27T05:46:59;101073.19;;;4.65;36.29
46846;BME280;33947;46.804;134.252;2023-02-27T05:53:13;101067.94;;;4.68;36.91
46846;BME280;33947;46.804;134.252;2023-02-27T05:56:21;101070.63;;;4.77;35.83
46846;BME280;33947;46.804;134.252;2023-02-27T05:59:39;101049.50;;;4.67;36.33
46846;BME280;33947;46.804;134.252;2023-02-27T06:02:48;101048.63;;;4.68;36.37
46846;BME280;33947;46.804;134.252;2023-02-27T06:05:54;101063.59;;;4.80;35.58
46846;BME280;33947;46.804;134.252;2023-02-27T06:09:00;101058.38;;;4.86;36.67
46846;BME280;33947;46.804;134.252;2023-02-27T06:12:04;101054.94;;;5.04;36.13
46846;BME280;33947;46.804;134.252;2023-02-27T06:15:09;101037.38;;;4.95;35.82
46846;BME280;33947;46.804;134.252;2023-02-27T06:18:15;101030.31;;;4.89;36.19
46846;BME280;33947;46.804;134.252;2023-02-27T06:21:20;101035.63;;;4.94;35.99
46846;BME280;33947;46.804;134.252;2023-02-27T06:24:27;101037.34;;;4.93;36.41
46846;BME280;33947;46.804;134.252;2023-02-27T06:27:32;101023.31;;;4.91;36.28
46846;BME280;33947;46.804;134.252;2023-02-27T06:30:37;101025.97;;;4.99;36.20
46846;BME280;33947;46.804;134.252;2023-02-27T06:33:41;101018.06;;;4.99;36.12
46846;BME280;33947;46.804;134.252;2023-02-27T06:36:45;101027.75;;;5.06;35.51
46846;BME280;33947;46.804;134.252;2023-02-27T06:39:51;101022.38;;;4.77;35.89
46846;BME280;33947;46.804;134.252;2023-02-27T06:42:55;101019.75;;;4.80;36.74
46846;BME280;33947;46.804;134.252;2023-02-27T06:45:59;101018.88;;;4.89;36.64
46846;BME280;33947;46.804;134.252;2023-02-27T06:49:04;100965.19;;;4.43;36.81
46846;BME280;33947;46.804;134.252;2023-02-27T06:52:16;100998.63;;;4.63;37.24
46846;BME280;33947;46.804;134.252;2023-02-27T06:55:20;101002.19;;;4.79;36.50
46846;BME280;33947;46.804;134.252;2023-02-27T06:58:25;101010.97;;;4.75;36.62
46846;BME280;33947;46.804;134.252;2023-02-27T07:01:30;101000.34;;;4.59;37.19
46846;BME280;33947;46.804;134.252;2023-02-27T07:04:34;101000.34;;;4.59;37.16
46846;BME280;33947;46.804;134.252;2023-02-27T07:07:39;101007.38;;;4.59;37.24
46846;BME280;33947;46.804;134.252;2023-02-27T07:10:44;100999.50;;;4.65;37.76
46846;BME280;33947;46.804;134.252;2023-02-27T07:13:49;100998.53;;;4.49;38.11
46846;BME280;33947;46.804;134.252;2023-02-27T07:16:57;100903.50;;;3.85;38.14
46846;BME280;33947;46.804;134.252;2023-02-27T07:20:03;100995.75;;;4.24;38.58
46846;BME280;33947;46.804;134.252;2023-02-27T07:23:07;100988.00;;;4.43;38.39
46846;BME280;33947;46.804;134.252;2023-02-27T07:26:13;100987.88;;;4.23;38.81
46846;BME280;33947;46.804;134.252;2023-02-27T07:29:17;100973.88;;;4.31;38.46
46846;BME280;33947;46.804;134.252;2023-02-27T07:32:22;100956.06;;;3.85;39.62
46846;BME280;33947;46.804;134.252;2023-02-27T07:35:27;100924.44;;;3.74;39.95
46846;BME280;33947;46.804;134.252;2023-02-27T07:38:31;100972.81;;;4.03;39.77
46846;BME280;33947;46.804;134.252;2023-02-27T07:41:35;100955.06;;;3.69;40.41
46846;BME280;33947;46.804;134.252;2023-02-27T07:44:40;100965.75;;;3.93;40.02
46846;BME280;33947;46.804;134.252;2023-02-27T07:47:45;100956.00;;;3.78;40.33
46846;BME280;33947;46.804;134.252;2023-02-27T07:50:49;100956.84;;;3.78;40.21
46846;BME280;33947;46.804;134.252;2023-02-27T07:53:56;100947.06;;;3.57;41.06
46846;BME280;33947;46.804;134.252;2023-02-27T07:57:02;100951.41;;;3.52;41.81
46846;BME280;33947;46.804;134.252;2023-02-27T08:00:07;100935.53;;;3.41;41.28
46846;BME280;33947;46.804;134.252;2023-02-27T08:03:15;100944.28;;;3.40;41.79
46846;BME280;33947;46.804;134.252;2023-02-27T08:06:19;100944.25;;;3.35;42.08
46846;BME280;33947;46.804;134.252;2023-02-27T08:09:24;100940.91;;;3.53;41.14
46846;BME280;33947;46.804;134.252;2023-02-27T08:12:30;100953.69;;;3.17;42.08
46846;BME280;33947;46.804;134.252;2023-02-27T08:15:34;100936.88;;;2.98;42.35
46846;BME280;33947;46.804;134.252;2023-02-27T08:18:39;100948.28;;;2.99;41.68
46846;BME280;33947;46.804;134.252;2023-02-27T08:21:45;100939.53;;;3.00;41.89
46846;BME280;33947;46.804;134.252;2023-02-27T08:24:49;100939.63;;;3.09;41.45
46846;BME280;33947;46.804;134.252;2023-02-27T08:27:54;100939.44;;;2.92;40.84
46846;BME280;33947;46.804;134.252;2023-02-27T08:30:58;100912.00;;;2.60;42.04
46846;BME280;33947;46.804;134.252;2023-02-27T08:34:03;100905.78;;;2.54;42.06
46846;BME280;33947;46.804;134.252;2023-02-27T08:37:12;100926.66;;;2.46;43.37
46846;BME280;33947;46.804;134.252;2023-02-27T08:40:17;100937.88;;;2.34;43.08
46846;BME280;33947;46.804;134.252;2023-02-27T08:43:22;100931.78;;;2.37;43.10
46846;BME280;33947;46.804;134.252;2023-02-27T08:46:26;100932.47;;;2.22;43.66
46846;BME280;33947;46.804;134.252;2023-02-27T08:49:31;100911.38;;;2.11;43.41
46846;BME280;33947;46.804;134.252;2023-02-27T08:52:36;100931.38;;;2.06;43.51
46846;BME280;33947;46.804;134.252;2023-02-27T08:55:40;100931.31;;;2.02;43.54
46846;BME280;33947;46.804;134.252;2023-02-27T08:58:45;100867.53;;;1.40;45.07
46846;BME280;33947;46.804;134.252;2023-02-27T09:01:49;100920.31;;;1.14;46.83
46846;BME280;33947;46.804;134.252;2023-02-27T09:04:54;100931.66;;;1.13;47.08
46846;BME280;33947;46.804;134.252;2023-02-27T09:07:58;100934.47;;;1.24;46.92
46846;BME280;33947;46.804;134.252;2023-02-27T09:11:03;100931.56;;;0.63;49.49
46846;BME280;33947;46.804;134.252;2023-02-27T09:14:08;100918.53;;;0.21;50.23
46846;BME280;33947;46.804;134.252;2023-02-27T09:17:12;100923.75;;;0.21;50.50
46846;BME280;33947;46.804;134.252;2023-02-27T09:20:16;100936.56;;;0.52;48.85
46846;BME280;33947;46.804;134.252;2023-02-27T09:23:21;100919.13;;;0.52;48.04
46846;BME280;33947;46.804;134.252;2023-02-27T09:26:25;100934.03;;;0.55;48.85
46846;BME280;33947;46.804;134.252;2023-02-27T09:29:47;100914.19;;;0.65;47.64
46846;BME280;33947;46.804;134.252;2023-02-27T09:32:52;100933.38;;;0.67;47.65
46846;BME280;33947;46.804;134.252;2023-02-27T09:35:57;100937.47;;;0.54;48.56
46846;BME280;33947;46.804;134.252;2023-02-27T09:39:01;100944.59;;;0.61;47.90
46846;BME280;33947;46.804;134.252;2023-02-27T09:42:29;100938.69;;;0.28;50.06
46846;BME280;33947;46.804;134.252;2023-02-27T09:45:37;100929.09;;;0.27;50.00
46846;BME280;33947;46.804;134.252;2023-02-27T09:48:46;100939.72;;;-0.05;50.76
46846;BME280;33947;46.804;134.252;2023-02-27T09:51:53;100936.50;;;-0.30;51.36
46846;BME280;33947;46.804;134.252;2023-02-27T09:54:57;100913.66;;;-0.38;51.71
46846;BME280;33947;46.804;134.252;2023-02-27T09:58:30;100942.66;;;-0.27;52.74
46846;BME280;33947;46.804;134.252;2023-02-27T10:05:35;100909.44;;;-0.70;53.10
46846;BME280;33947;46.804;134.252;2023-02-27T10:12:21;100936.53;;;-0.98;53.60
46846;BME280;33947;46.804;134.252;2023-02-27T10:15:47;100928.47;;;-0.74;53.85
46846;BME280;33947;46.804;134.252;2023-02-27T10:19:02;100934.41;;;-0.80;52.69
46846;BME280;33947;46.804;134.252;2023-02-27T10:22:13;100908.78;;;-1.28;54.00
46846;BME280;33947;46.804;134.252;2023-02-27T10:25:22;100929.31;;;-1.39;54.75
46846;BME280;33947;46.804;134.252;2023-02-27T10:28:34;100925.47;;;-1.54;55.75
46846;BME280;33947;46.804;134.252;2023-02-27T10:31:39;100931.91;;;-1.41;55.18
46846;BME280;33947;46.804;134.252;2023-02-27T10:34:53;100926.22;;;-1.58;55.61
46846;BME280;33947;46.804;134.252;2023-02-27T10:38:02;100902.31;;;-1.73;56.00
46846;BME280;33947;46.804;134.252;2023-02-27T10:41:14;100921.00;;;-2.16;57.89
46846;BME280;33947;46.804;134.252;2023-02-27T10:44:21;100915.06;;;-2.12;58.03
46846;BME280;33947;46.804;134.252;2023-02-27T10:47:27;100919.13;;;-2.22;57.89
46846;BME280;33947;46.804;134.252;2023-02-27T10:50:37;100919.25;;;-1.88;56.35
46846;BME280;33947;46.804;134.252;2023-02-27T10:53:43;100920.34;;;-2.38;60.71
46846;BME280;33947;46.804;134.252;2023-02-27T10:56:54;100922.78;;;-2.15;57.98
46846;BME280;33947;46.804;134.252;2023-02-27T11:00:09;100898.78;;;-2.34;58.75
46846;BME280;33947;46.804;134.252;2023-02-27T11:03:34;100891.63;;;-2.12;57.52
46846;BME280;33947;46.804;134.252;2023-02-27T11:06:42;100911.75;;;-2.08;56.81
46846;BME280;33947;46.804;134.252;2023-02-27T11:13:19;100882.09;;;-2.40;59.16
46846;BME280;33947;46.804;134.252;2023-02-27T11:16:45;100903.81;;;-2.40;58.04
46846;BME280;33947;46.804;134.252;2023-02-27T11:19:49;100910.16;;;-2.30;57.92
46846;BME280;33947;46.804;134.252;2023-02-27T11:23:14;100900.59;;;-2.58;58.47
46846;BME280;33947;46.804;134.252;2023-02-27T11:30:04;100855.28;;;-2.93;60.08
46846;BME280;33947;46.804;134.252;2023-02-27T11:33:19;100814.84;;;-3.10;58.79
46846;BME280;33947;46.804;134.252;2023-02-27T11:39:50;100884.13;;;-2.85;58.78
46846;BME280;33947;46.804;134.252;2023-02-27T11:43:03;100878.66;;;-2.93;58.83
46846;BME280;33947;46.804;134.252;2023-02-27T11:46:10;100811.13;;;-3.18;58.62
46846;BME280;33947;46.804;134.252;2023-02-27T11:49:43;100842.63;;;-3.09;58.62
46846;BME280;33947;46.804;134.252;2023-02-27T11:56:29;100875.91;;;-3.23;59.08
46846;BME280;33947;46.804;134.252;2023-02-27T12:06:10;100863.44;;;-3.08;59.15
46846;BME280;33947;46.804;134.252;2023-02-27T12:12:55;100855.59;;;-3.59;60.64
46846;BME280;33947;46.804;134.252;2023-02-27T12:19:41;100688.22;;;-4.68;60.58
46846;BME280;33947;46.804;134.252;2023-02-27T12:22:50;100858.81;;;-3.42;59.81
46846;BME280;33947;46.804;134.252;2023-02-27T12:26:11;100832.75;;;-3.94;61.88
46846;BME280;33947;46.804;134.252;2023-02-27T12:33:19;100854.22;;;-4.21;61.70
46846;BME280;33947;46.804;134.252;2023-02-27T12:36:29;100859.81;;;-4.33;61.92
46846;BME280;33947;46.804;134.252;2023-02-27T12:39:34;100849.38;;;-4.12;60.69
46846;BME280;33947;46.804;134.252;2023-02-27T12:55:50;100832.09;;;-4.34;61.11
46846;BME280;33947;46.804;134.252;2023-02-27T13:06:05;100843.25;;;-4.59;61.19
46846;BME280;33947;46.804;134.252;2023-02-27T13:12:47;100829.69;;;-4.52;61.76
46846;BME280;33947;46.804;134.252;2023-02-27T13:23:42;100821.38;;;-4.43;60.98
46846;BME280;33947;46.804;134.252;2023-02-27T13:30:37;100812.84;;;-4.63;61.19
46846;BME280;33947;46.804;134.252;2023-02-27T13:33:47;100811.34;;;-4.80;61.39
46846;BME280;33947;46.804;134.252;2023-02-27T13:37:00;100809.72;;;-4.76;61.94
46846;BME280;33947;46.804;134.252;2023-02-27T13:40:33;100792.34;;;-4.57;61.64
46846;BME280;33947;46.804;134.252;2023-02-27T13:43:38;100762.22;;;-4.54;60.52
46846;BME280;33947;46.804;134.252;2023-02-27T13:46:53;100789.97;;;-4.28;60.42
46846;BME280;33947;46.804;134.252;2023-02-27T13:53:24;100762.50;;;-4.91;61.88
46846;BME280;33947;46.804;134.252;2023-02-27T13:56:29;100782.72;;;-4.37;60.75
46846;BME280;33947;46.804;134.252;2023-02-27T13:59:38;100781.13;;;-4.33;61.26
46846;BME280;33947;46.804;134.252;2023-02-27T14:06:03;100761.53;;;-4.49;60.69
46846;BME280;33947;46.804;134.252;2023-02-27T14:09:11;100695.59;;;-4.79;61.02
46846;BME280;33947;46.804;134.252;2023-02-27T14:12:27;100778.28;;;-4.17;60.00
46846;BME280;33947;46.804;134.252;2023-02-27T14:15:51;100777.25;;;-4.68;62.42
46846;BME280;33947;46.804;134.252;2023-02-27T14:18:58;100774.06;;;-4.60;62.26
46846;BME280;33947;46.804;134.252;2023-02-27T14:28:54;100678.69;;;-5.15;62.40
46846;BME280;33947;46.804;134.252;2023-02-27T14:32:04;100736.41;;;-4.51;62.55
46846;BME280;33947;46.804;134.252;2023-02-27T14:35:15;100761.56;;;-4.48;62.05
46846;BME280;33947;46.804;134.252;2023-02-27T14:38:20;100716.63;;;-4.71;62.03
46846;BME280;33947;46.804;134.252;2023-02-27T14:44:54;100741.94;;;-4.64;63.04
46846;BME280;33947;46.804;134.252;2023-02-27T14:47:58;100701.06;;;-4.71;62.59
46846;BME280;33947;46.804;134.252;2023-02-27T14:51:03;100751.06;;;-4.28;61.55
46846;BME280;33947;46.804;134.252;2023-02-27T14:54:20;100755.41;;;-4.27;62.14
46846;BME280;33947;46.804;134.252;2023-02-27T14:57:25;100759.03;;;-4.46;62.68
46846;BME280;33947;46.804;134.252;2023-02-27T15:00:39;100752.41;;;-4.38;62.28
46846;BME280;33947;46.804;134.252;2023-02-27T15:03:47;100740.00;;;-4.23;61.50
46846;BME280;33947;46.804;134.252;2023-02-27T15:06:54;100647.75;;;-4.65;61.35
46846;BME280;33947;46.804;134.252;2023-02-27T15:10:02;100739.34;;;-4.17;61.62
46846;BME280;33947;46.804;134.252;2023-02-27T15:13:28;100731.38;;;-4.46;62.67
46846;BME280;33947;46.804;134.252;2023-02-27T15:16:39;100711.97;;;-4.80;63.09
46846;BME280;33947;46.804;134.252;2023-02-27T15:19:54;100715.78;;;-4.93;63.51
46846;BME280;33947;46.804;134.252;2023-02-27T15:23:00;100727.06;;;-4.70;62.36
46846;BME280;33947;46.804;134.252;2023-02-27T15:26:05;100703.88;;;-4.65;63.16
46846;BME280;33947;46.804;134.252;2023-02-27T15:29:18;100724.28;;;-4.52;62.08
46846;BME280;33947;46.804;134.252;2023-02-27T15:35:35;100705.22;;;-4.03;62.38
46846;BME280;33947;46.804;134.252;2023-02-27T15:38:42;100702.22;;;-4.16;62.27
46846;BME280;33947;46.804;134.252;2023-02-27T15:42:04;100686.47;;;-4.45;62.77
46846;BME280;33947;46.804;134.252;2023-02-27T15:45:20;100701.88;;;-4.49;63.78
46846;BME280;33947;46.804;134.252;2023-02-27T15:48:25;100693.84;;;-4.56;63.44
46846;BME280;33947;46.804;134.252;2023-02-27T15:51:29;100691.50;;;-4.49;63.25
46846;BME280;33947;46.804;134.252;2023-02-27T15:54:34;100695.59;;;-4.79;65.04
46846;BME280;33947;46.804;134.252;2023-02-27T15:57:39;100685.22;;;-4.32;63.55
46846;BME280;33947;46.804;134.252;2023-02-27T16:01:01;100692.41;;;-3.47;62.68
46846;BME280;33947;46.804;134.252;2023-02-27T16:04:16;100686.16;;;-3.80;62.54
46846;BME280;33947;46.804;134.252;2023-02-27T16:07:24;100657.75;;;-4.01;62.09
46846;BME280;33947;46.804;134.252;2023-02-27T16:10:34;100633.09;;;-3.88;62.32
46846;BME280;33947;46.804;134.252;2023-02-27T16:13:40;100666.56;;;-3.15;61.02
46846;BME280;33947;46.804;134.252;2023-02-27T16:16:54;100659.72;;;-3.40;61.96
46846;BME280;33947;46.804;134.252;2023-02-27T16:20:18;100660.28;;;-2.64;60.53
46846;BME280;33947;46.804;134.252;2023-02-27T16:23:28;100651.28;;;-2.44;59.57
46846;BME280;33947;46.804;134.252;2023-02-27T16:26:35;100645.00;;;-2.21;59.95
46846;BME280;33947;46.804;134.252;2023-02-27T16:29:42;100639.44;;;-2.01;59.15
46846;BME280;33947;46.804;134.252;2023-02-27T16:32:48;100628.75;;;-1.77;58.94
46846;BME280;33947;46.804;134.252;2023-02-27T16:36:26;100627.06;;;-1.76;59.02
46846;BME280;33947;46.804;134.252;2023-02-27T16:39:32;100622.88;;;-1.69;59.00
46846;BME280;33947;46.804;134.252;2023-02-27T16:42:37;100542.41;;;-2.30;59.87
46846;BME280;33947;46.804;134.252;2023-02-27T16:45:49;100551.75;;;-2.04;59.71
46846;BME280;33947;46.804;134.252;2023-02-27T16:48:59;100606.81;;;-1.51;59.06
46846;BME280;33947;46.804;134.252;2023-02-27T16:52:20;100594.72;;;-1.48;58.77
46846;BME280;33947;46.804;134.252;2023-02-27T16:55:26;100591.09;;;-1.54;59.12
46846;BME280;33947;46.804;134.252;2023-02-27T16:58:30;100589.78;;;-1.35;58.77
46846;BME280;33947;46.804;134.252;2023-02-27T17:01:34;100584.38;;;-1.44;59.01
46846;BME280;33947;46.804;134.252;2023-02-27T17:04:39;100584.09;;;-1.57;59.55
46846;BME280;33947;46.804;134.252;2023-02-27T17:07:52;100575.91;;;-1.34;58.28
46846;BME280;33947;46.804;134.252;2023-02-27T17:10:57;100575.88;;;-1.36;58.72
46846;BME280;33947;46.804;134.252;2023-02-27T17:14:01;100571.28;;;-1.48;59.22
46846;BME280;33947;46.804;134.252;2023-02-27T17:17:06;100564.16;;;-1.55;59.78
46846;BME280;33947;46.804;134.252;2023-02-27T17:20:12;100560.38;;;-1.29;59.18
46846;BME280;33947;46.804;134.252;2023-02-27T17:23:17;100566.06;;;-1.48;59.58
46846;BME280;33947;46.804;134.252;2023-02-27T17:26:21;100557.03;;;-1.24;58.55
46846;BME280;33947;46.804;134.252;2023-02-27T17:29:26;100554.22;;;-1.33;59.06
46846;BME280;33947;46.804;134.252;2023-02-27T17:32:33;100555.75;;;-1.43;59.15
46846;BME280;33947;46.804;134.252;2023-02-27T17:35:37;100542.59;;;-1.49;59.41
46846;BME280;33947;46.804;134.252;2023-02-27T17:38:41;100550.13;;;-1.22;58.67
46846;BME280;33947;46.804;134.252;2023-02-27T17:41:47;100546.31;;;-0.95;58.16
46846;BME280;33947;46.804;134.252;2023-02-27T17:44:51;100526.00;;;-1.11;58.06
46846;BME280;33947;46.804;134.252;2023-02-27T17:47:55;100548.44;;;-1.18;58.75
46846;BME280;33947;46.804;134.252;2023-02-27T17:51:04;100544.09;;;-1.19;59.31
46846;BME280;33947;46.804;134.252;2023-02-27T17:54:08;100535.53;;;-1.13;58.81
46846;BME280;33947;46.804;134.252;2023-02-27T17:57:13;100538.09;;;-1.15;58.63
46846;BME280;33947;46.804;134.252;2023-02-27T18:00:17;100518.84;;;-1.22;58.32
46846;BME280;33947;46.804;134.252;2023-02-27T18:03:22;100483.53;;;-1.50;59.03
46846;BME280;33947;46.804;134.252;2023-02-27T18:06:26;100513.50;;;-1.28;58.78
46846;BME280;33947;46.804;134.252;2023-02-27T18:09:32;100522.88;;;-1.36;59.35
46846;BME280;33947;46.804;134.252;2023-02-27T18:12:36;100493.75;;;-1.58;59.76
46846;BME280;33947;46.804;134.252;2023-02-27T18:15:41;100518.56;;;-1.36;59.56
46846;BME280;33947;46.804;134.252;2023-02-27T18:18:45;100514.44;;;-1.26;59.16
46846;BME280;33947;46.804;134.252;2023-02-27T18:21:50;100496.59;;;-1.47;59.49
46846;BME280;33947;46.804;134.252;2023-02-27T18:24:54;100498.25;;;-1.51;59.66
46846;BME280;33947;46.804;134.252;2023-02-27T18:27:58;100501.03;;;-1.43;59.69
46846;BME280;33947;46.804;134.252;2023-02-27T18:31:03;100513.16;;;-1.45;60.25
46846;BME280;33947;46.804;134.252;2023-02-27T18:34:10;100500.06;;;-1.48;60.10
46846;BME280;33947;46.804;134.252;2023-02-27T18:37:14;100502.97;;;-1.33;59.57
46846;BME280;33947;46.804;134.252;2023-02-27T18:40:18;100501.00;;;-1.83;60.78
46846;BME280;33947;46.804;134.252;2023-02-27T18:43:27;100504.50;;;-1.82;61.44
46846;BME280;33947;46.804;134.252;2023-02-27T18:46:32;100499.94;;;-1.53;60.24
46846;BME280;33947;46.804;134.252;2023-02-27T18:49:37;100475.97;;;-1.36;59.52